sensor_id;sensor_type;location;lat;lon;timestamp;pressure;altitude;pressure_sealevel;temperature;humidity
1207;BME280;593;53.184;8.216;2024-03-23T00:55:33;100481.66;;;9.59;100.00
1207;BME280;593;53.184;8.216;2024-03-23T00:57:59;100468.38;;;9.58;100.00
1207;BME280;593;53.184;8.216;2024-03-23T01:00:24;100465.94;;;9.56;100.00
1207;BME280;593;53.184;8.216;2024-03-23T01:02:50;100456.16;;;9.55;100.00
1207;BME280;593;53.184;8.216;2024-03-23T01:05:15;100453.75;;;9.54;100.00
1207;BME280;593;53.184;8.216;2024-03-23T01:07:40;100446.16;;;9.51;100.00
1207;BME280;593;53.184;8.216;2024-03-23T01:10:06;100454.56;;;9.49;100.00
1207;BME280;593;53.184;8.216;2024-03-23T01:12:31;100454.84;;;9.48;100.00
1207;BME280;593;53.184;8.216;2024-03-23T01:14:57;100448.59;;;9.47;100.00
1207;BME280;593;53.184;8.216;2024-03-23T01:17:22;100448.88;;;9.46;100.00
1207;BME280;593;53.184;8.216;2024-03-23T01:19:47;100443.75;;;9.44;100.00
1207;BME280;593;53.184;8.216;2024-03-23T01:22:13;100440.47;;;9.42;100.00
1207;BME280;593;53.184;8.216;2024-03-23T01:24:38;100432.63;;;9.41;100.00
1207;BME280;593;53.184;8.216;2024-03-23T01:27:04;100431.59;;;9.37;100.00
1207;BME280;593;53.184;8.216;2024-03-23T01:29:29;100428.28;;;9.40;100.00
1207;BME280;593;53.184;8.216;2024-03-23T01:31:55;100440.50;;;9.37;100.00
1207;BME280;593;53.184;8.216;2024-03-23T01:34:20;100437.78;;;9.37;100.00
1207;BME280;593;53.184;8.216;2024-03-23T01:36:46;100425.59;;;9.35;100.00
1207;BME280;593;53.184;8.216;2024-03-23T01:39:12;100422.88;;;9.35;100.00
1207;BME280;593;53.184;8.216;2024-03-23T01:41:38;100417.75;;;9.33;100.00
1207;BME280;593;53.184;8.216;2024-03-23T01:44:07;100414.25;;;9.28;100.00
1207;BME280;593;53.184;8.216;2024-03-23T01:46:33;100412.63;;;9.32;100.00
1207;BME280;593;53.184;8.216;2024-03-23T01:48:59;100405.56;;;9.31;100.00
1207;BME280;593;53.184;8.216;2024-03-23T01:51:26;100415.59;;;9.30;100.00
1207;BME280;593;53.184;8.216;2024-03-23T01:53:51;100409.94;;;9.27;100.00
1207;BME280;593;53.184;8.216;2024-03-23T01:56:18;100412.06;;;9.30;100.00
1207;BME280;593;53.184;8.216;2024-03-23T01:58:43;100402.31;;;9.29;100.00
1207;BME280;593;53.184;8.216;2024-03-23T02:01:09;100397.16;;;9.27;100.00
1207;BME280;593;53.184;8.216;2024-03-23T02:03:34;100395.53;;;9.26;100.00
1207;BME280;593;53.184;8.216;2024-03-23T02:05:59;100394.72;;;9.26;100.00
1207;BME280;593;53.184;8.216;2024-03-23T02:08:25;100393.09;;;9.25;100.00
1207;BME280;593;53.184;8.216;2024-03-23T02:10:51;100382.53;;;9.23;100.00
1207;BME280;593;53.184;8.216;2024-03-23T02:13:19;100389.59;;;9.24;100.00
1207;BME280;593;53.184;8.216;2024-03-23T02:15:45;100395.28;;;9.23;100.00
1207;BME280;593;53.184;8.216;2024-03-23T02:18:11;100395.28;;;9.23;100.00
1207;BME280;593;53.184;8.216;2024-03-23T02:20:37;100380.13;;;9.17;100.00
1207;BME280;593;53.184;8.216;2024-03-23T02:23:06;100377.69;;;9.15;100.00
1207;BME280;593;53.184;8.216;2024-03-23T02:25:32;100375.22;;;9.19;100.00
1207;BME280;593;53.184;8.216;2024-03-23T02:27:58;100372.22;;;9.20;100.00
1207;BME280;593;53.184;8.216;2024-03-23T02:30:25;100372.53;;;9.19;100.00
1207;BME280;593;53.184;8.216;2024-03-23T02:32:50;100348.38;;;9.12;100.00
1207;BME280;593;53.184;8.216;2024-03-23T02:35:16;100350.56;;;9.15;100.00
1207;BME280;593;53.184;8.216;2024-03-23T02:37:41;100348.94;;;9.14;100.00
1207;BME280;593;53.184;8.216;2024-03-23T02:40:07;100344.59;;;9.13;100.00
1207;BME280;593;53.184;8.216;2024-03-23T02:42:32;100347.59;;;9.12;100.00
1207;BME280;593;53.184;8.216;2024-03-23T02:44:59;100345.97;;;9.11;100.00
1207;BME280;593;53.184;8.216;2024-03-23T02:47:24;100337.84;;;9.11;100.00
1207;BME280;593;53.184;8.216;2024-03-23T02:49:49;100330.78;;;9.10;100.00
1207;BME280;593;53.184;8.216;2024-03-23T02:52:15;100326.16;;;9.10;100.00
1207;BME280;593;53.184;8.216;2024-03-23T02:54:40;100321.03;;;9.09;100.00
1207;BME280;593;53.184;8.216;2024-03-23T02:57:10;100322.09;;;9.08;100.00
1207;BME280;593;53.184;8.216;2024-03-23T02:59:35;100321.59;;;9.06;100.00
1207;BME280;593;53.184;8.216;2024-03-23T03:02:01;100307.53;;;8.98;100.00
1207;BME280;593;53.184;8.216;2024-03-23T03:04:26;100310.72;;;9.06;100.00
1207;BME280;593;53.184;8.216;2024-03-23T03:06:52;100304.78;;;9.03;100.00
1207;BME280;593;53.184;8.216;2024-03-23T03:09:17;100307.75;;;9.02;100.00
1207;BME280;593;53.184;8.216;2024-03-23T03:11:42;100311.59;;;9.01;100.00
1207;BME280;593;53.184;8.216;2024-03-23T03:14:08;100313.78;;;8.99;100.00
1207;BME280;593;53.184;8.216;2024-03-23T03:16:33;100299.94;;;8.95;100.00
1207;BME280;593;53.184;8.216;2024-03-23T03:18:59;100305.91;;;8.97;100.00
1207;BME280;593;53.184;8.216;2024-03-23T03:21:25;100305.06;;;8.97;100.00
1207;BME280;593;53.184;8.216;2024-03-23T03:23:50;100297.22;;;8.95;100.00
1207;BME280;593;53.184;8.216;2024-03-23T03:26:16;100289.66;;;8.92;100.00
1207;BME280;593;53.184;8.216;2024-03-23T03:28:43;100287.75;;;8.93;100.00
1207;BME280;593;53.184;8.216;2024-03-23T03:31:09;100293.47;;;8.91;100.00
1207;BME280;593;53.184;8.216;2024-03-23T03:33:35;100299.97;;;8.90;100.00
1207;BME280;593;53.184;8.216;2024-03-23T03:36:00;100299.97;;;8.90;100.00
1207;BME280;593;53.184;8.216;2024-03-23T03:38:25;100289.41;;;8.89;100.00
1207;BME280;593;53.184;8.216;2024-03-23T03:40:51;100278.31;;;8.85;100.00
1207;BME280;593;53.184;8.216;2024-03-23T03:43:17;100276.16;;;8.82;100.00
1207;BME280;593;53.184;8.216;2024-03-23T03:45:51;100282.09;;;8.84;100.00
1207;BME280;593;53.184;8.216;2024-03-23T03:48:16;100277.25;;;8.81;100.00
1207;BME280;593;53.184;8.216;2024-03-23T03:50:42;100268.06;;;8.77;100.00
1207;BME280;593;53.184;8.216;2024-03-23T03:53:07;100264.25;;;8.78;100.00
1207;BME280;593;53.184;8.216;2024-03-23T03:55:33;100256.16;;;8.73;100.00
1207;BME280;593;53.184;8.216;2024-03-23T03:57:58;100263.19;;;8.74;100.00
1207;BME280;593;53.184;8.216;2024-03-23T04:00:23;100269.72;;;8.73;100.00
1207;BME280;593;53.184;8.216;2024-03-23T04:02:49;100271.91;;;8.71;100.00
1207;BME280;593;53.184;8.216;2024-03-23T04:05:14;100274.88;;;8.70;100.00
1207;BME280;593;53.184;8.216;2024-03-23T04:07:40;100258.91;;;8.63;100.00
1207;BME280;593;53.184;8.216;2024-03-23T04:10:05;100265.69;;;8.66;100.00
1207;BME280;593;53.184;8.216;2024-03-23T04:12:33;100268.66;;;8.64;100.00
1207;BME280;593;53.184;8.216;2024-03-23T04:14:59;100260.81;;;8.63;100.00
1207;BME280;593;53.184;8.216;2024-03-23T04:17:24;100270.31;;;8.60;100.00
1207;BME280;593;53.184;8.216;2024-03-23T04:19:50;100258.13;;;8.58;100.00
1207;BME280;593;53.184;8.216;2024-03-23T04:22:17;100266.25;;;8.58;100.00
1207;BME280;593;53.184;8.216;2024-03-23T04:24:43;100271.16;;;8.56;100.00
1207;BME280;593;53.184;8.216;2024-03-23T04:27:08;100272.22;;;8.55;100.00
1207;BME280;593;53.184;8.216;2024-03-23T04:29:34;100277.13;;;8.53;100.00
1207;BME280;593;53.184;8.216;2024-03-23T04:31:59;100264.94;;;8.50;100.00
1207;BME280;593;53.184;8.216;2024-03-23T04:34:26;100266.31;;;8.48;100.00
1207;BME280;593;53.184;8.216;2024-03-23T04:36:51;100258.72;;;8.45;100.00
1207;BME280;593;53.184;8.216;2024-03-23T04:39:16;100252.78;;;8.43;100.00
1207;BME280;593;53.184;8.216;2024-03-23T04:41:42;100248.47;;;8.42;100.00
1207;BME280;593;53.184;8.216;2024-03-23T04:44:07;100245.50;;;8.38;100.00
1207;BME280;593;53.184;8.216;2024-03-23T04:46:33;100248.22;;;8.33;100.00
1207;BME280;593;53.184;8.216;2024-03-23T04:48:58;100253.13;;;8.31;100.00
1207;BME280;593;53.184;8.216;2024-03-23T04:51:24;100237.94;;;8.25;100.00
1207;BME280;593;53.184;8.216;2024-03-23T04:53:49;100247.69;;;8.31;100.00
1207;BME280;593;53.184;8.216;2024-03-23T04:56:16;100239.03;;;8.29;100.00
1207;BME280;593;53.184;8.216;2024-03-23T04:58:42;100240.41;;;8.26;100.00
1207;BME280;593;53.184;8.216;2024-03-23T05:01:07;100234.16;;;8.26;100.00
1207;BME280;593;53.184;8.216;2024-03-23T05:03:33;100231.16;;;8.22;100.00
1207;BME280;593;53.184;8.216;2024-03-23T05:05:58;100224.16;;;8.21;100.00
1207;BME280;593;53.184;8.216;2024-03-23T05:08:24;100232.00;;;8.18;100.00
1207;BME280;593;53.184;8.216;2024-03-23T05:10:49;100231.19;;;8.17;100.00
1207;BME280;593;53.184;8.216;2024-03-23T05:13:14;100220.91;;;8.14;100.00
1207;BME280;593;53.184;8.216;2024-03-23T05:15:40;100221.47;;;8.11;100.00
1207;BME280;593;53.184;8.216;2024-03-23T05:18:05;100215.25;;;8.11;100.00
1207;BME280;593;53.184;8.216;2024-03-23T05:20:31;100223.09;;;8.07;100.00
1207;BME280;593;53.184;8.216;2024-03-23T05:22:58;100221.75;;;8.05;100.00
1207;BME280;593;53.184;8.216;2024-03-23T05:25:24;100225.56;;;8.04;100.00
1207;BME280;593;53.184;8.216;2024-03-23T05:27:49;100225.81;;;8.02;100.00
1207;BME280;593;53.184;8.216;2024-03-23T05:30:15;100213.13;;;7.93;100.00
1207;BME280;593;53.184;8.216;2024-03-23T05:32:40;100218.25;;;7.99;100.00
1207;BME280;593;53.184;8.216;2024-03-23T05:35:07;100223.94;;;7.98;100.00
1207;BME280;593;53.184;8.216;2024-03-23T05:37:33;100221.78;;;7.95;100.00
1207;BME280;593;53.184;8.216;2024-03-23T05:39:59;100220.44;;;7.92;100.00
1207;BME280;593;53.184;8.216;2024-03-23T05:42:25;100218.28;;;7.89;100.00
1207;BME280;593;53.184;8.216;2024-03-23T05:44:53;100217.50;;;7.89;100.00
1207;BME280;593;53.184;8.216;2024-03-23T05:47:19;100207.22;;;7.86;100.00
1207;BME280;593;53.184;8.216;2024-03-23T05:49:46;100190.16;;;7.80;100.00
1207;BME280;593;53.184;8.216;2024-03-23T05:52:12;100204.00;;;7.79;100.00
1207;BME280;593;53.184;8.216;2024-03-23T05:54:37;100202.88;;;7.80;100.00
1207;BME280;593;53.184;8.216;2024-03-23T05:57:04;100213.47;;;7.76;100.00
1207;BME280;593;53.184;8.216;2024-03-23T05:59:29;100208.06;;;7.76;100.00
1207;BME280;593;53.184;8.216;2024-03-23T06:01:56;100208.84;;;7.76;100.00
1207;BME280;593;53.184;8.216;2024-03-23T06:04:21;100215.88;;;7.78;100.00
1207;BME280;593;53.184;8.216;2024-03-23T06:06:47;100217.78;;;7.77;100.00
1207;BME280;593;53.184;8.216;2024-03-23T06:09:13;100211.03;;;7.74;100.00
1207;BME280;593;53.184;8.216;2024-03-23T06:11:38;100206.13;;;7.76;100.00
1207;BME280;593;53.184;8.216;2024-03-23T06:14:04;100212.91;;;7.79;100.00
1207;BME280;593;53.184;8.216;2024-03-23T06:16:29;100215.59;;;7.79;100.00
1207;BME280;593;53.184;8.216;2024-03-23T06:18:56;100202.63;;;7.76;100.00
1207;BME280;593;53.184;8.216;2024-03-23T06:21:21;100206.69;;;7.84;100.00
1207;BME280;593;53.184;8.216;2024-03-23T06:23:51;100202.03;;;7.89;100.00
1207;BME280;593;53.184;8.216;2024-03-23T06:26:20;100206.66;;;7.89;100.00
1207;BME280;593;53.184;8.216;2024-03-23T06:28:46;100204.19;;;7.97;100.00
1207;BME280;593;53.184;8.216;2024-03-23T06:31:12;100208.22;;;8.00;100.00
1207;BME280;593;53.184;8.216;2024-03-23T06:33:38;100209.84;;;8.06;100.00
1207;BME280;593;53.184;8.216;2024-03-23T06:36:05;100210.66;;;8.11;100.00
1207;BME280;593;53.184;8.216;2024-03-23T06:38:31;100199.50;;;8.18;100.00
1207;BME280;593;53.184;8.216;2024-03-23T06:40:56;100198.94;;;8.21;100.00
1207;BME280;593;53.184;8.216;2024-03-23T06:43:21;100204.09;;;8.27;100.00
1207;BME280;593;53.184;8.216;2024-03-23T06:45:54;100201.63;;;8.36;100.00
1207;BME280;593;53.184;8.216;2024-03-23T06:48:19;100200.78;;;8.41;100.00
1207;BME280;593;53.184;8.216;2024-03-23T06:50:45;100196.66;;;8.48;100.00
1207;BME280;593;53.184;8.216;2024-03-23T06:53:12;100199.06;;;8.55;100.00
1207;BME280;593;53.184;8.216;2024-03-23T06:55:37;100202.00;;;8.63;100.00
1207;BME280;593;53.184;8.216;2024-03-23T06:58:03;100204.66;;;8.68;100.00
1207;BME280;593;53.184;8.216;2024-03-23T07:00:29;100195.44;;;8.69;100.00
1207;BME280;593;53.184;8.216;2024-03-23T07:02:54;100194.00;;;8.82;100.00
1207;BME280;593;53.184;8.216;2024-03-23T07:05:20;100187.75;;;8.86;100.00
1207;BME280;593;53.184;8.216;2024-03-23T07:07:45;100193.66;;;8.93;100.00
1207;BME280;593;53.184;8.216;2024-03-23T07:10:11;100190.38;;;8.96;100.00
1207;BME280;593;53.184;8.216;2024-03-23T07:12:36;100195.00;;;8.96;100.00
1207;BME280;593;53.184;8.216;2024-03-23T07:15:03;100197.41;;;8.97;100.00
1207;BME280;593;53.184;8.216;2024-03-23T07:17:29;100191.09;;;9.07;100.00
1207;BME280;593;53.184;8.216;2024-03-23T07:19:54;100196.72;;;9.16;100.00
1207;BME280;593;53.184;8.216;2024-03-23T07:22:19;100189.97;;;9.13;100.00
1207;BME280;593;53.184;8.216;2024-03-23T07:24:45;100181.78;;;9.18;100.00
1207;BME280;593;53.184;8.216;2024-03-23T07:27:10;100182.59;;;9.19;100.00
1207;BME280;593;53.184;8.216;2024-03-23T07:29:36;100177.13;;;9.24;100.00
1207;BME280;593;53.184;8.216;2024-03-23T07:32:02;100191.13;;;9.36;100.00
1207;BME280;593;53.184;8.216;2024-03-23T07:34:27;100187.84;;;9.39;100.00
1207;BME280;593;53.184;8.216;2024-03-23T07:36:53;100183.97;;;9.45;100.00
1207;BME280;593;53.184;8.216;2024-03-23T07:39:18;100177.66;;;9.49;100.00
1207;BME280;593;53.184;8.216;2024-03-23T07:41:44;100176.56;;;9.50;100.00
1207;BME280;593;53.184;8.216;2024-03-23T07:44:10;100177.03;;;9.57;100.00
1207;BME280;593;53.184;8.216;2024-03-23T07:46:36;100181.09;;;9.60;100.00
1207;BME280;593;53.184;8.216;2024-03-23T07:49:01;100181.84;;;9.65;100.00
1207;BME280;593;53.184;8.216;2024-03-23T07:51:27;100184.81;;;9.69;100.00
1207;BME280;593;53.184;8.216;2024-03-23T07:53:52;100175.84;;;9.68;100.00
1207;BME280;593;53.184;8.216;2024-03-23T07:56:19;100179.22;;;9.84;100.00
1207;BME280;593;53.184;8.216;2024-03-23T07:58:45;100178.59;;;9.87;100.00
1207;BME280;593;53.184;8.216;2024-03-23T08:01:15;100184.78;;;9.93;100.00
1207;BME280;593;53.184;8.216;2024-03-23T08:03:42;100186.63;;;9.97;100.00
1207;BME280;593;53.184;8.216;2024-03-23T08:08:34;100178.47;;;9.97;100.00
1207;BME280;593;53.184;8.216;2024-03-23T08:11:00;100170.63;;;9.96;100.00
1207;BME280;593;53.184;8.216;2024-03-23T08:13:26;100175.13;;;10.05;100.00
1207;BME280;593;53.184;8.216;2024-03-23T08:15:52;100177.84;;;10.05;100.00
1207;BME280;593;53.184;8.216;2024-03-23T08:18:17;100170.75;;;10.09;100.00
1207;BME280;593;53.184;8.216;2024-03-23T08:20:43;100172.09;;;10.12;100.00
1207;BME280;593;53.184;8.216;2024-03-23T08:23:08;100174.53;;;10.13;100.00
1207;BME280;593;53.184;8.216;2024-03-23T08:25:34;100172.34;;;10.10;100.00
1207;BME280;593;53.184;8.216;2024-03-23T08:28:00;100166.41;;;10.08;100.00
1207;BME280;593;53.184;8.216;2024-03-23T08:30:26;100173.97;;;10.11;100.00
1207;BME280;593;53.184;8.216;2024-03-23T08:32:51;100153.47;;;10.00;100.00
1207;BME280;593;53.184;8.216;2024-03-23T08:35:17;100176.16;;;10.14;100.00
1207;BME280;593;53.184;8.216;2024-03-23T08:37:42;100174.53;;;10.13;100.00
1207;BME280;593;53.184;8.216;2024-03-23T08:40:08;100166.38;;;10.13;100.00
1207;BME280;593;53.184;8.216;2024-03-23T08:42:34;100171.81;;;10.13;100.00
1207;BME280;593;53.184;8.216;2024-03-23T08:44:59;100164.16;;;10.15;100.00
1207;BME280;593;53.184;8.216;2024-03-23T08:47:25;100172.81;;;10.17;100.00
1207;BME280;593;53.184;8.216;2024-03-23T08:49:50;100163.91;;;10.17;100.00
1207;BME280;593;53.184;8.216;2024-03-23T08:52:16;100167.19;;;10.14;100.00
1207;BME280;593;53.184;8.216;2024-03-23T08:54:41;100156.00;;;10.15;99.24
1207;BME280;593;53.184;8.216;2024-03-23T08:57:07;100157.66;;;10.16;98.88
1207;BME280;593;53.184;8.216;2024-03-23T08:59:33;100151.69;;;10.14;98.34
1207;BME280;593;53.184;8.216;2024-03-23T09:01:58;100163.81;;;10.22;98.34
1207;BME280;593;53.184;8.216;2024-03-23T09:04:23;100163.00;;;10.21;97.95
1207;BME280;593;53.184;8.216;2024-03-23T09:06:49;100154.84;;;10.21;97.63
1207;BME280;593;53.184;8.216;2024-03-23T09:09:15;100155.94;;;10.20;97.20
1207;BME280;593;53.184;8.216;2024-03-23T09:11:40;100152.41;;;10.20;97.26
1207;BME280;593;53.184;8.216;2024-03-23T09:14:05;100150.50;;;10.20;97.43
1207;BME280;593;53.184;8.216;2024-03-23T09:16:31;100146.72;;;10.21;96.75
1207;BME280;593;53.184;8.216;2024-03-23T09:18:56;100141.84;;;10.18;96.53
1207;BME280;593;53.184;8.216;2024-03-23T09:21:22;100149.44;;;10.21;96.62
1207;BME280;593;53.184;8.216;2024-03-23T09:23:47;100152.34;;;10.25;96.59
1207;BME280;593;53.184;8.216;2024-03-23T09:26:12;100137.50;;;10.17;97.74
1207;BME280;593;53.184;8.216;2024-03-23T09:28:38;100149.94;;;10.23;97.51
1207;BME280;593;53.184;8.216;2024-03-23T09:31:05;100139.88;;;10.24;97.51
1207;BME280;593;53.184;8.216;2024-03-23T09:33:30;100144.44;;;10.28;97.30
1207;BME280;593;53.184;8.216;2024-03-23T09:35:56;100137.97;;;10.24;98.03
1207;BME280;593;53.184;8.216;2024-03-23T09:38:24;100141.13;;;10.32;97.52
1207;BME280;593;53.184;8.216;2024-03-23T09:40:53;100131.72;;;10.24;97.32
1207;BME280;593;53.184;8.216;2024-03-23T09:43:19;100145.16;;;10.34;96.25
1207;BME280;593;53.184;8.216;2024-03-23T09:45:45;100147.59;;;10.36;95.78
1207;BME280;593;53.184;8.216;2024-03-23T09:48:11;100149.41;;;10.40;95.83
1207;BME280;593;53.184;8.216;2024-03-23T09:50:42;100151.03;;;10.41;95.60
1207;BME280;593;53.184;8.216;2024-03-23T09:53:08;100144.78;;;10.41;95.14
1207;BME280;593;53.184;8.216;2024-03-23T09:55:34;100144.78;;;10.41;94.89
1207;BME280;593;53.184;8.216;2024-03-23T09:58:01;100150.47;;;10.44;94.37
1207;BME280;593;53.184;8.216;2024-03-23T10:00:27;100144.94;;;10.49;94.19
1207;BME280;593;53.184;8.216;2024-03-23T10:02:55;100137.50;;;10.55;93.97
1207;BME280;593;53.184;8.216;2024-03-23T10:05:22;100132.81;;;10.60;93.27
1207;BME280;593;53.184;8.216;2024-03-23T10:07:51;100134.63;;;10.65;93.41
1207;BME280;593;53.184;8.216;2024-03-23T10:10:17;100129.72;;;10.67;93.32
1207;BME280;593;53.184;8.216;2024-03-23T10:12:47;100126.41;;;10.70;90.87
1207;BME280;593;53.184;8.216;2024-03-23T10:15:23;100121.03;;;10.65;90.91
1207;BME280;593;53.184;8.216;2024-03-23T10:17:52;100130.44;;;10.72;90.43
1207;BME280;593;53.184;8.216;2024-03-23T10:20:22;100129.66;;;10.72;90.22
1207;BME280;593;53.184;8.216;2024-03-23T10:22:48;100134.47;;;10.75;88.95
1207;BME280;593;53.184;8.216;2024-03-23T10:25:15;100116.84;;;10.72;88.12
1207;BME280;593;53.184;8.216;2024-03-23T10:27:41;100122.50;;;10.76;88.65
1207;BME280;593;53.184;8.216;2024-03-23T10:30:10;100133.28;;;10.81;88.56
1207;BME280;593;53.184;8.216;2024-03-23T10:32:36;100129.47;;;10.82;88.64
1207;BME280;593;53.184;8.216;2024-03-23T10:35:15;100113.94;;;10.82;89.85
1207;BME280;593;53.184;8.216;2024-03-23T10:37:42;100119.91;;;10.84;91.23
1207;BME280;593;53.184;8.216;2024-03-23T10:40:09;100117.19;;;10.84;91.61
1207;BME280;593;53.184;8.216;2024-03-23T10:42:37;100129.09;;;10.88;92.39
1207;BME280;593;53.184;8.216;2024-03-23T10:45:07;100130.41;;;10.91;92.81
1207;BME280;593;53.184;8.216;2024-03-23T10:47:34;100126.59;;;10.92;92.53
1207;BME280;593;53.184;8.216;2024-03-23T10:50:00;100104.09;;;10.86;92.07
1207;BME280;593;53.184;8.216;2024-03-23T10:52:25;100112.91;;;10.97;91.77
1207;BME280;593;53.184;8.216;2024-03-23T10:54:51;100119.94;;;10.98;90.51
1207;BME280;593;53.184;8.216;2024-03-23T10:57:23;100115.31;;;10.99;90.42
1207;BME280;593;53.184;8.216;2024-03-23T10:59:49;100103.03;;;11.01;90.73
1207;BME280;593;53.184;8.216;2024-03-23T11:02:21;100110.59;;;11.04;89.44
1207;BME280;593;53.184;8.216;2024-03-23T11:04:47;100102.44;;;11.04;89.20
1207;BME280;593;53.184;8.216;2024-03-23T11:07:32;100104.75;;;11.11;88.88
1207;BME280;593;53.184;8.216;2024-03-23T11:09:59;100107.47;;;11.11;88.63
1207;BME280;593;53.184;8.216;2024-03-23T11:12:30;100107.19;;;11.12;87.37
1207;BME280;593;53.184;8.216;2024-03-23T11:15:03;100089.41;;;11.01;85.79
1207;BME280;593;53.184;8.216;2024-03-23T11:17:29;100104.66;;;11.16;85.67
1207;BME280;593;53.184;8.216;2024-03-23T11:19:55;100106.28;;;11.17;84.45
1207;BME280;593;53.184;8.216;2024-03-23T11:22:41;100104.38;;;11.17;82.84
1207;BME280;593;53.184;8.216;2024-03-23T11:25:21;100119.59;;;11.18;83.16
1207;BME280;593;53.184;8.216;2024-03-23T11:27:48;100118.50;;;11.19;82.61
1207;BME280;593;53.184;8.216;2024-03-23T11:30:24;100111.81;;;11.12;83.25
1207;BME280;593;53.184;8.216;2024-03-23T11:32:52;100114.75;;;11.15;83.97
1207;BME280;593;53.184;8.216;2024-03-23T11:38:15;100144.09;;;11.18;84.93
1207;BME280;593;53.184;8.216;2024-03-23T11:40:42;100184.41;;;11.16;86.03
1207;BME280;593;53.184;8.216;2024-03-23T11:43:09;100202.88;;;11.19;86.38
1207;BME280;593;53.184;8.216;2024-03-23T11:45:51;100211.31;;;11.18;87.21
1207;BME280;593;53.184;8.216;2024-03-23T11:48:22;100196.72;;;11.14;86.90
1207;BME280;593;53.184;8.216;2024-03-23T11:50:55;100191.84;;;11.11;86.72
1207;BME280;593;53.184;8.216;2024-03-23T11:53:22;100193.84;;;11.05;87.64
1207;BME280;593;53.184;8.216;2024-03-23T11:55:59;100187.69;;;11.00;87.65
1207;BME280;593;53.184;8.216;2024-03-23T11:58:27;100179.63;;;10.94;87.92
1207;BME280;593;53.184;8.216;2024-03-23T12:01:00;100178.56;;;10.90;88.22
1207;BME280;593;53.184;8.216;2024-03-23T12:03:31;100163.44;;;10.84;88.64
1207;BME280;593;53.184;8.216;2024-03-23T12:05:59;100160.00;;;10.79;89.02
1207;BME280;593;53.184;8.216;2024-03-23T12:11:15;100145.50;;;10.65;89.09
1207;BME280;593;53.184;8.216;2024-03-23T12:13:42;100144.00;;;10.59;88.99
1207;BME280;593;53.184;8.216;2024-03-23T12:16:20;100130.97;;;10.56;89.18
1207;BME280;593;53.184;8.216;2024-03-23T12:18:50;100124.22;;;10.53;90.14
1207;BME280;593;53.184;8.216;2024-03-23T12:21:16;100116.88;;;10.54;90.82
1207;BME280;593;53.184;8.216;2024-03-23T12:23:43;100114.44;;;10.52;91.41
1207;BME280;593;53.184;8.216;2024-03-23T12:26:12;100111.50;;;10.49;92.37
1207;BME280;593;53.184;8.216;2024-03-23T12:28:38;100117.47;;;10.51;93.81
1207;BME280;593;53.184;8.216;2024-03-23T12:31:04;100119.09;;;10.52;94.88
1207;BME280;593;53.184;8.216;2024-03-23T12:33:30;100118.28;;;10.51;95.89
1207;BME280;593;53.184;8.216;2024-03-23T12:35:56;100112.03;;;10.51;96.19
1207;BME280;593;53.184;8.216;2024-03-23T12:38:21;100115.75;;;10.55;97.37
1207;BME280;593;53.184;8.216;2024-03-23T12:40:47;100119.50;;;10.59;97.97
1207;BME280;593;53.184;8.216;2024-03-23T12:43:13;100111.63;;;10.57;98.18
1207;BME280;593;53.184;8.216;2024-03-23T12:45:39;100126.78;;;10.63;98.31
1207;BME280;593;53.184;8.216;2024-03-23T12:48:04;100141.69;;;10.66;98.06
1207;BME280;593;53.184;8.216;2024-03-23T12:50:30;100167.00;;;10.66;98.43
1207;BME280;593;53.184;8.216;2024-03-23T12:52:55;100161.25;;;10.68;98.95
1207;BME280;593;53.184;8.216;2024-03-23T12:55:21;100152.06;;;10.64;98.98
1207;BME280;593;53.184;8.216;2024-03-23T12:57:47;100134.78;;;10.55;96.93
1207;BME280;593;53.184;8.216;2024-03-23T13:00:13;100123.31;;;10.58;96.50
1207;BME280;593;53.184;8.216;2024-03-23T13:02:38;100120.09;;;10.56;97.26
1207;BME280;593;53.184;8.216;2024-03-23T13:05:04;100125.53;;;10.56;97.46
1207;BME280;593;53.184;8.216;2024-03-23T13:07:30;100115.75;;;10.55;98.47
1207;BME280;593;53.184;8.216;2024-03-23T13:09:56;100104.88;;;10.55;98.82
1207;BME280;593;53.184;8.216;2024-03-23T13:12:22;100101.06;;;10.56;99.80
1207;BME280;593;53.184;8.216;2024-03-23T13:14:48;100105.41;;;10.57;100.00
1207;BME280;593;53.184;8.216;2024-03-23T13:17:13;100109.72;;;10.58;100.00
1207;BME280;593;53.184;8.216;2024-03-23T13:19:39;100107.00;;;10.58;100.00
1207;BME280;593;53.184;8.216;2024-03-23T13:22:05;100104.22;;;10.63;100.00
1207;BME280;593;53.184;8.216;2024-03-23T13:24:31;100104.72;;;10.65;100.00
1207;BME280;593;53.184;8.216;2024-03-23T13:26:57;100098.69;;;10.68;100.00
1207;BME280;593;53.184;8.216;2024-03-23T13:29:23;100095.06;;;10.72;100.00
1207;BME280;593;53.184;8.216;2024-03-23T13:31:50;100087.94;;;10.76;100.00
1207;BME280;593;53.184;8.216;2024-03-23T13:34:16;100089.78;;;10.81;100.00
1207;BME280;593;53.184;8.216;2024-03-23T13:36:45;100082.84;;;10.88;100.00
1207;BME280;593;53.184;8.216;2024-03-23T13:39:12;100089.81;;;10.94;100.00
1207;BME280;593;53.184;8.216;2024-03-23T13:41:41;100091.63;;;10.99;100.00
1207;BME280;593;53.184;8.216;2024-03-23T13:44:07;100081.16;;;11.06;100.00
1207;BME280;593;53.184;8.216;2024-03-23T13:46:33;100074.81;;;11.11;100.00
1207;BME280;593;53.184;8.216;2024-03-23T13:48:59;100087.84;;;11.14;100.00
1207;BME280;593;53.184;8.216;2024-03-23T13:51:25;100085.34;;;11.17;100.00
1207;BME280;593;53.184;8.216;2024-03-23T13:53:55;100077.84;;;11.23;98.40
1207;BME280;593;53.184;8.216;2024-03-23T13:56:24;100094.19;;;11.23;97.69
1207;BME280;593;53.184;8.216;2024-03-23T13:58:50;100085.66;;;11.29;94.87
1207;BME280;593;53.184;8.216;2024-03-23T14:01:16;100087.25;;;11.30;92.68
1207;BME280;593;53.184;8.216;2024-03-23T14:03:42;100089.88;;;11.35;91.71
1207;BME280;593;53.184;8.216;2024-03-23T14:06:08;100092.00;;;11.38;91.67
1207;BME280;593;53.184;8.216;2024-03-23T14:08:38;100094.13;;;11.41;92.44
1207;BME280;593;53.184;8.216;2024-03-23T14:11:07;100090.97;;;11.48;92.53
1207;BME280;593;53.184;8.216;2024-03-23T14:13:34;100088.25;;;11.48;92.19
1207;BME280;593;53.184;8.216;2024-03-23T14:16:00;100098.66;;;11.46;90.75
1207;BME280;593;53.184;8.216;2024-03-23T14:18:25;100109.44;;;11.51;89.75